Time;durP1;ratioP1;P1;durP2;ratioP2;P2;SDS_P1;SDS_P2;PMS_P1;PMS_P2;Temp;Humidity;BMP_temperature;BMP_pressure;BME280_temperature;BME280_humidity;BME280_pressure;Samples;Min_cycle;Max_cycle;Signal;HPM_P1;HPM_P2
2023/06/09 00:02:24;;;;;;;6.93;5.70;;;;;11.70;93895.00;;;;7395620;19;20172;-76
2023/06/09 00:05:00;;;;;;;7.90;6.55;;;;;11.80;93903.00;;;;7396851;19;20968;-75
2023/06/09 00:07:29;;;;;;;8.23;7.13;;;;;11.70;93829.00;;;;7399140;19;20500;-75
2023/06/09 00:10:04;;;;;;;10.48;7.38;;;;;11.80;93894.00;;;;7397656;19;20137;-75
2023/06/09 00:12:40;;;;;;;7.67;6.83;;;;;11.90;93896.00;;;;7396339;19;20184;-75
2023/06/09 00:15:15;;;;;;;10.23;6.93;;;;;11.80;93900.00;;;;7396757;19;20616;-74
2023/06/09 00:17:50;;;;;;;9.27;7.00;;;;;11.80;93902.00;;;;7398696;19;20637;-74
2023/06/09 00:20:25;;;;;;;8.45;6.95;;;;;11.80;93905.00;;;;7399234;19;20148;-74
2023/06/09 00:22:55;;;;;;;10.77;6.90;;;;;11.70;93894.00;;;;7396076;19;20137;-75
2023/06/09 00:25:29;;;;;;;9.45;7.03;;;;;11.80;93894.00;;;;7397153;19;20136;-75
2023/06/09 00:28:04;;;;;;;9.18;7.32;;;;;11.90;93893.00;;;;7397995;19;20117;-75
2023/06/09 00:30:31;;;;;;;15.75;6.75;;;;;12.10;93897.00;;;;7398137;19;20150;-75
2023/06/09 00:33:07;;;;;;;7.18;6.43;;;;;12.00;93887.00;;;;7396811;19;20469;-75
2023/06/09 00:35:35;;;;;;;7.97;7.17;;;;;12.00;93885.00;;;;7397430;19;20145;-74
2023/06/09 00:38:09;;;;;;;7.93;6.43;;;;;12.00;93889.00;;;;7395408;19;20117;-74
2023/06/09 00:40:36;;;;;;;8.63;6.77;;;;;12.00;93885.00;;;;7396272;19;20144;-75
2023/06/09 00:43:24;;;;;;;8.95;6.97;;;;;11.80;93882.00;;;;7396070;19;20144;-74
2023/06/09 00:45:52;;;;;;;9.38;6.28;;;;;11.80;93885.00;;;;7397022;19;20121;-75
2023/06/09 00:48:27;;;;;;;7.35;6.40;;;;;11.70;93874.00;;;;7395858;19;20600;-75
2023/06/09 00:50:55;;;;;;;7.43;6.63;;;;;11.60;93883.00;;;;7396536;19;20144;-74
2023/06/09 00:53:30;;;;;;;10.40;6.63;;;;;11.60;93882.00;;;;7398235;19;20132;-75
2023/06/09 00:55:59;;;;;;;8.18;6.60;;;;;11.70;93878.00;;;;7395512;19;20144;-76
2023/06/09 00:58:34;;;;;;;7.40;6.60;;;;;11.80;93881.00;;;;7396658;19;20158;-75
2023/06/09 01:01:02;;;;;;;9.35;7.25;;;;;11.70;93878.00;;;;7396405;19;20158;-75
2023/06/09 01:03:32;;;;;;;8.37;6.63;;;;;11.60;93869.00;;;;7388948;19;20218;-79
2023/06/09 01:06:46;;;;;;;7.40;6.47;;;;;11.60;93873.00;;;;7384348;19;20123;-79
2023/06/09 01:09:29;;;;;;;7.97;7.00;;;;;11.70;93877.00;;;;7396283;19;20607;-79
2023/06/09 01:12:19;;;;;;;8.73;7.22;;;;;11.80;93881.00;;;;7388636;19;21140;-79
2023/06/09 01:15:02;;;;;;;8.38;7.47;;;;;11.70;93877.00;;;;7391120;19;20132;-79
2023/06/09 01:17:39;;;;;;;9.48;7.78;;;;;11.70;93894.00;;;;7391665;19;20121;-79
2023/06/09 01:20:16;;;;;;;8.68;7.80;;;;;11.50;93887.00;;;;7391806;19;20593;-79
2023/06/09 01:23:04;;;;;;;11.65;8.38;;;;;11.60;93885.00;;;;7388027;19;20529;-79
2023/06/09 01:25:47;;;;;;;9.63;7.73;;;;;11.70;93886.00;;;;7388688;19;20129;-79
2023/06/09 01:28:20;;;;;;;10.10;8.20;;;;;11.70;93886.00;;;;7390251;19;20651;-79
2023/06/09 01:30:56;;;;;;;10.37;8.10;;;;;11.70;93877.00;;;;7390537;19;20143;-79
2023/06/09 01:33:25;;;;;;;11.07;7.23;;;;;11.50;93873.00;;;;7389222;19;20121;-79
2023/06/09 01:36:01;;;;;;;9.03;8.13;;;;;11.50;93878.00;;;;7389372;19;20619;-79
2023/06/09 01:38:29;;;;;;;9.20;8.30;;;;;11.60;93878.00;;;;7388279;19;20141;-79
2023/06/09 01:41:06;;;;;;;10.30;8.10;;;;;11.70;93871.00;;;;7389813;19;20584;-79
2023/06/09 01:43:34;;;;;;;10.17;8.10;;;;;11.80;93878.00;;;;7388581;19;20585;-79
2023/06/09 01:46:02;;;;;;;8.90;7.80;;;;;11.70;93877.00;;;;7390863;19;20145;-79
2023/06/09 01:48:47;;;;;;;13.45;8.35;;;;;11.70;93872.00;;;;7389508;19;20117;-79
2023/06/09 01:51:50;;;;;;;13.70;7.90;;;;;11.60;93867.00;;;;7387578;19;21100;-79
2023/06/09 01:54:40;;;;;;;8.90;8.00;;;;;11.50;93858.00;;;;7387407;19;20174;-79
2023/06/09 01:57:13;;;;;;;14.32;8.15;;;;;11.50;93861.00;;;;7388432;19;20141;-79
2023/06/09 01:59:57;;;;;;;8.70;7.73;;;;;11.30;93850.00;;;;7385199;19;20588;-79
2023/06/09 02:02:34;;;;;;;12.73;8.23;;;;;11.30;93851.00;;;;7387171;19;20168;-79
2023/06/09 02:05:17;;;;;;;11.90;8.40;;;;;11.20;93858.00;;;;7389379;19;20631;-79
2023/06/09 02:07:53;;;;;;;9.77;7.07;;;;;11.30;93860.00;;;;7390849;19;20141;-79
2023/06/09 02:10:31;;;;;;;10.13;8.20;;;;;11.30;93856.00;;;;7387620;19;20672;-79
2023/06/09 02:13:14;;;;;;;10.80;8.90;;;;;11.40;93857.00;;;;7385639;19;20202;-79
2023/06/09 02:15:49;;;;;;;10.67;9.10;;;;;11.30;93857.00;;;;7385811;19;20156;-79
2023/06/09 02:18:21;;;;;;;10.13;9.13;;;;;11.50;93851.00;;;;7388298;19;20454;-79
2023/06/09 02:20:56;;;;;;;14.67;9.63;;;;;11.60;93861.00;;;;7387887;19;20166;-80
2023/06/09 02:23:30;;;;;;;11.10;9.30;;;;;11.50;93864.00;;;;7384191;19;20133;-79
2023/06/09 02:26:03;;;;;;;10.02;8.75;;;;;11.30;93861.00;;;;7388249;19;20120;-79
2023/06/09 02:28:33;;;;;;;12.52;8.63;;;;;11.30;93852.00;;;;7385785;19;20219;-79
2023/06/09 02:31:06;;;;;;;11.53;9.23;;;;;11.20;93855.00;;;;7385388;19;20647;-79
2023/06/09 02:33:45;;;;;;;14.47;10.67;;;;;11.10;93854.00;;;;7386737;19;20208;-79
2023/06/09 02:36:12;;;;;;;13.70;11.03;;;;;11.20;93861.00;;;;7388608;19;20629;-79
2023/06/09 02:38:47;;;;;;;11.63;9.77;;;;;11.30;93852.00;;;;7384632;19;20182;-79
2023/06/09 02:41:21;;;;;;;14.95;9.85;;;;;11.30;93854.00;;;;7386634;19;20185;-79
2023/06/09 02:43:56;;;;;;;11.30;9.80;;;;;11.40;93862.00;;;;7386635;19;20148;-79
2023/06/09 02:46:23;;;;;;;13.70;10.50;;;;;11.30;93862.00;;;;7385445;19;20125;-79
2023/06/09 02:48:51;;;;;;;15.10;9.70;;;;;11.10;93858.00;;;;7386550;19;20136;-76
2023/06/09 02:51:25;;;;;;;13.53;10.50;;;;;11.20;93853.00;;;;7387951;19;20536;-77
2023/06/09 02:54:00;;;;;;;16.17;10.57;;;;;11.30;93860.00;;;;7385228;19;20148;-79
2023/06/09 02:56:27;;;;;;;12.60;9.50;;;;;11.20;93859.00;;;;7384336;19;20162;-79
2023/06/09 02:59:02;;;;;;;11.40;9.90;;;;;11.20;93862.00;;;;7388652;19;20196;-79
2023/06/09 03:01:34;;;;;;;11.50;10.30;;;;;11.30;93859.00;;;;7384070;19;20148;-79
2023/06/09 03:04:17;;;;;;;12.50;10.30;;;;;11.30;93852.00;;;;7382836;19;20172;-79
2023/06/09 03:06:48;;;;;;;13.67;10.17;;;;;11.30;93860.00;;;;7385793;19;20129;-76
2023/06/09 03:09:26;;;;;;;12.87;11.13;;;;;11.30;93858.00;;;;7384129;19;20663;-77
2023/06/09 03:11:54;;;;;;;12.37;10.60;;;;;11.30;93859.00;;;;7385444;19;20145;-77
2023/06/09 03:14:28;;;;;;;13.70;10.25;;;;;11.30;93855.00;;;;7384443;19;20148;-77
2023/06/09 03:17:04;;;;;;;10.63;9.32;;;;;11.30;93858.00;;;;7385395;19;20167;-77
2023/06/09 03:19:32;;;;;;;11.97;9.80;;;;;11.20;93862.00;;;;7382327;19;20140;-77
2023/06/09 03:22:09;;;;;;;13.77;10.35;;;;;11.00;93853.00;;;;7385793;19;20141;-77
2023/06/09 03:24:36;;;;;;;12.43;9.90;;;;;11.00;93859.00;;;;7384524;19;20148;-79
2023/06/09 03:27:11;;;;;;;12.47;11.03;;;;;11.20;93864.00;;;;7383948;19;20177;-76
2023/06/09 03:29:39;;;;;;;13.27;11.37;;;;;11.20;93864.00;;;;7383267;19;20478;-77
2023/06/09 03:32:13;;;;;;;12.47;10.93;;;;;11.30;93862.00;;;;7385885;19;20180;-79
2023/06/09 03:34:41;;;;;;;15.70;12.87;;;;;11.40;93858.00;;;;7384327;19;20576;-77
2023/06/09 03:37:10;;;;;;;21.70;17.33;;;;;11.40;93857.00;;;;7383398;19;20117;-79
2023/06/09 03:39:44;;;;;;;15.80;11.35;;;;;11.40;93859.00;;;;7382320;19;20192;-79
2023/06/09 03:42:19;;;;;;;14.57;10.20;;;;;11.30;93852.00;;;;7381131;19;20143;-77
2023/06/09 03:44:58;;;;;;;12.02;10.30;;;;;11.30;93855.00;;;;7384295;19;20652;-79
2023/06/09 03:47:33;;;;;;;12.68;10.98;;;;;11.40;93851.00;;;;7385090;19;20154;-79
2023/06/09 03:50:01;;;;;;;13.07;10.60;;;;;11.30;93859.00;;;;7383520;19;20136;-78
2023/06/09 03:52:28;;;;;;;13.93;11.03;;;;;11.50;93851.00;;;;7384254;19;20605;-78
2023/06/09 03:55:06;;;;;;;11.73;10.15;;;;;11.40;93855.00;;;;7383556;19;20148;-78
2023/06/09 03:57:41;;;;;;;13.35;10.18;;;;;11.40;93856.00;;;;7385675;19;20143;-78
2023/06/09 04:00:16;;;;;;;17.00;10.55;;;;;11.50;93859.00;;;;7382778;19;20125;-78
2023/06/09 04:02:44;;;;;;;11.90;10.23;;;;;11.50;93854.00;;;;7381906;19;20190;-79
2023/06/09 04:05:25;;;;;;;16.10;10.80;;;;;11.60;93858.00;;;;7384814;19;20128;-78
2023/06/09 04:07:53;;;;;;;16.13;10.30;;;;;11.70;93863.00;;;;7382389;19;20120;-78
2023/06/09 04:10:28;;;;;;;12.80;9.82;;;;;11.70;93863.00;;;;7383340;19;20154;-78
2023/06/09 04:12:57;;;;;;;13.63;11.23;;;;;11.80;93862.00;;;;7386437;19;20471;-78
2023/06/09 04:15:31;;;;;;;16.63;12.38;;;;;11.80;93862.00;;;;7382691;19;20203;-78
2023/06/09 04:17:59;;;;;;;14.93;11.52;;;;;12.00;93858.00;;;;7382957;19;20121;-77
2023/06/09 04:20:38;;;;;;;13.07;10.20;;;;;12.00;93809.00;;;;7382086;19;20758;-78
2023/06/09 04:23:12;;;;;;;16.08;11.10;;;;;12.10;93867.00;;;;7382828;19;20195;-78
2023/06/09 04:25:46;;;;;;;12.85;10.88;;;;;12.10;93873.00;;;;7381535;19;20153;-78
2023/06/09 04:28:21;;;;;;;13.02;10.88;;;;;12.10;93863.00;;;;7381979;19;20538;-79
2023/06/09 04:30:57;;;;;;;15.50;10.75;;;;;12.20;93856.00;;;;7382917;19;20140;-79
2023/06/09 04:33:26;;;;;;;13.60;11.57;;;;;12.30;93858.00;;;;7382708;19;20548;-78
2023/06/09 04:36:00;;;;;;;13.88;11.95;;;;;12.50;93860.00;;;;7383104;19;20128;-78
2023/06/09 04:38:32;;;;;;;12.55;11.23;;;;;12.50;93859.00;;;;7382982;19;20519;-78
2023/06/09 04:41:08;;;;;;;13.48;11.27;;;;;12.80;93859.00;;;;7382628;19;20132;-78
2023/06/09 04:43:42;;;;;;;13.25;10.70;;;;;12.90;93855.00;;;;7381006;19;20132;-78
2023/06/09 04:46:16;;;;;;;12.93;11.30;;;;;13.20;93862.00;;;;7383329;19;21351;-77
2023/06/09 04:48:46;;;;;;;13.55;11.55;;;;;13.30;93865.00;;;;7390913;19;20145;-77
2023/06/09 04:51:24;;;;;;;12.43;10.40;;;;;13.40;93866.00;;;;7388791;19;20211;-77
2023/06/09 04:53:54;;;;;;;14.10;10.82;;;;;13.70;93861.00;;;;7390518;19;20553;-77
2023/06/09 04:56:29;;;;;;;11.65;10.30;;;;;13.80;93864.00;;;;7392029;19;20696;-77
2023/06/09 04:59:06;;;;;;;12.13;10.20;;;;;13.90;93867.00;;;;7388862;19;20148;-77
2023/06/09 05:01:37;;;;;;;12.05;9.75;;;;;13.80;93860.00;;;;7390009;19;20155;-79
2023/06/09 05:04:13;;;;;;;11.20;9.00;;;;;14.20;93860.00;;;;7388850;19;20494;-78
2023/06/09 05:06:55;;;;;;;9.63;8.02;;;;;14.40;93857.00;;;;7390216;19;20173;-78
2023/06/09 05:09:23;;;;;;;10.02;8.20;;;;;14.50;93853.00;;;;7389638;19;20136;-78
2023/06/09 05:11:57;;;;;;;14.82;8.98;;;;;14.70;93854.00;;;;7389297;19;20165;-78
2023/06/09 05:14:25;;;;;;;10.07;8.05;;;;;14.90;93858.00;;;;7389988;19;20152;-78
2023/06/09 05:17:02;;;;;;;8.68;7.78;;;;;15.10;93855.00;;;;7389069;19;20684;-78
2023/06/09 05:19:36;;;;;;;9.27;7.50;;;;;15.40;93867.00;;;;7387470;19;20123;-78
2023/06/09 05:22:13;;;;;;;12.82;8.38;;;;;15.60;93857.00;;;;7370399;19;20576;-78
2023/06/09 05:24:50;;;;;;;9.70;7.95;;;;;15.60;93875.00;;;;7366270;19;20184;-78
2023/06/09 05:27:21;;;;;;;7.75;6.95;;;;;15.80;93878.00;;;;7372046;19;20711;-77
2023/06/09 05:29:57;;;;;;;9.27;7.25;;;;;15.90;93875.00;;;;7373815;19;20603;-78
2023/06/09 05:32:32;;;;;;;8.63;7.47;;;;;16.00;93865.00;;;;7373529;19;20555;-78
2023/06/09 05:35:07;;;;;;;8.15;7.20;;;;;15.90;93876.00;;;;7372451;19;20537;-78
2023/06/09 05:37:52;;;;;;;7.47;6.72;;;;;16.00;93876.00;;;;7375260;19;20557;-78
2023/06/09 05:40:35;;;;;;;8.68;6.25;;;;;15.90;93876.00;;;;7375803;19;20125;-77
2023/06/09 05:43:07;;;;;;;14.35;7.47;;;;;16.20;93885.00;;;;7375229;19;20141;-77
2023/06/09 05:45:41;;;;;;;6.90;6.20;;;;;16.50;93880.00;;;;7376963;19;20148;-78
2023/06/09 05:48:16;;;;;;;7.88;6.20;;;;;16.60;93881.00;;;;7378534;19;20124;-77
2023/06/09 05:50:51;;;;;;;7.35;6.25;;;;;16.60;93876.00;;;;7374892;19;20144;-78
2023/06/09 05:53:29;;;;;;;7.65;6.85;;;;;16.90;93875.00;;;;7376296;19;20567;-77
2023/06/09 05:55:59;;;;;;;7.80;6.47;;;;;17.40;93887.00;;;;7375012;19;20133;-76
2023/06/09 05:58:34;;;;;;;7.13;6.38;;;;;17.50;93879.00;;;;7373917;19;20147;-78
2023/06/09 06:01:03;;;;;;;7.22;6.13;;;;;17.70;93882.00;;;;7374444;19;20167;-77
2023/06/09 06:03:47;;;;;;;9.13;6.47;;;;;17.90;93882.00;;;;7371041;19;20639;-77
2023/06/09 06:06:25;;;;;;;7.80;6.70;;;;;17.70;93882.00;;;;7373750;19;20162;-77
2023/06/09 06:09:03;;;;;;;7.43;6.07;;;;;18.10;93885.00;;;;7377621;19;20128;-78
2023/06/09 06:11:38;;;;;;;5.82;5.22;;;;;18.60;93843.00;;;;7376057;19;20705;-78
2023/06/09 06:14:15;;;;;;;5.55;5.05;;;;;19.20;93879.00;;;;7375505;19;20132;-76
2023/06/09 06:16:44;;;;;;;7.53;6.63;;;;;19.70;93884.00;;;;7374333;19;20140;-76
2023/06/09 06:19:19;;;;;;;5.97;5.38;;;;;20.20;93881.00;;;;7372683;19;20534;-75
2023/06/09 06:21:50;;;;;;;7.38;6.13;;;;;20.40;93886.00;;;;7373405;19;20226;-76
2023/06/09 06:24:25;;;;;;;8.55;5.75;;;;;20.70;93895.00;;;;7372260;19;20137;-76
2023/06/09 06:26:53;;;;;;;7.25;6.03;;;;;20.90;93895.00;;;;7374502;19;20149;-76
2023/06/09 06:29:30;;;;;;;8.40;6.38;;;;;21.20;93898.00;;;;7372973;19;21170;-77
2023/06/09 06:32:05;;;;;;;8.30;5.68;;;;;21.00;93895.00;;;;7375388;19;20148;-76
2023/06/09 06:34:35;;;;;;;9.55;5.50;;;;;21.00;93898.00;;;;7372056;19;20176;-76
2023/06/09 06:37:11;;;;;;;8.35;5.03;;;;;21.20;93904.00;;;;7372976;19;20167;-76
2023/06/09 06:39:39;;;;;;;6.68;5.00;;;;;21.20;93899.00;;;;7374071;19;20151;-75
2023/06/09 06:42:13;;;;;;;6.25;5.30;;;;;21.20;93900.00;;;;7376295;19;20591;-76
2023/06/09 06:44:48;;;;;;;7.60;4.75;;;;;21.00;93902.00;;;;7372927;19;20465;-76
2023/06/09 06:47:25;;;;;;;5.15;4.72;;;;;20.70;93901.00;;;;7372133;19;20159;-77
2023/06/09 06:49:53;;;;;;;5.05;4.55;;;;;20.40;93908.00;;;;7374039;19;20500;-76
2023/06/09 06:52:25;;;;;;;5.32;4.65;;;;;19.80;93904.00;;;;7372346;19;20136;-75
2023/06/09 06:55:00;;;;;;;6.78;5.30;;;;;19.80;93911.00;;;;7374976;19;20128;-77
2023/06/09 06:57:39;;;;;;;9.52;4.93;;;;;19.40;93904.00;;;;7373796;19;20124;-76
2023/06/09 07:00:16;;;;;;;4.45;4.05;;;;;19.60;93911.00;;;;7375284;19;20149;-76
2023/06/09 07:02:59;;;;;;;4.78;4.38;;;;;19.60;93911.00;;;;7371133;19;20180;-76
2023/06/09 07:05:27;;;;;;;5.68;4.72;;;;;19.80;93916.00;;;;7373506;19;20493;-75
2023/06/09 07:08:02;;;;;;;4.65;4.25;;;;;20.00;93916.00;;;;7373962;19;20599;-75
2023/06/09 07:10:34;;;;;;;8.73;4.78;;;;;20.20;93927.00;;;;7369783;19;20140;-76
2023/06/09 07:13:09;;;;;;;5.80;4.78;;;;;20.40;93938.00;;;;7372085;19;20149;-77
2023/06/09 07:15:43;;;;;;;5.43;4.93;;;;;20.50;93939.00;;;;7373088;19;20280;-76
2023/06/09 07:18:19;;;;;;;5.15;4.65;;;;;20.60;93934.00;;;;7371671;19;20457;-76
2023/06/09 07:20:53;;;;;;;7.05;5.00;;;;;20.30;93938.00;;;;7371427;19;20617;-77
2023/06/09 07:23:22;;;;;;;5.10;4.40;;;;;20.40;93942.00;;;;7373040;19;20460;-76
2023/06/09 07:25:58;;;;;;;5.47;4.30;;;;;20.40;93944.00;;;;7372418;19;20152;-76
2023/06/09 07:28:32;;;;;;;4.28;3.83;;;;;20.60;93932.00;;;;7373363;19;20148;-78
2023/06/09 07:31:15;;;;;;;4.60;4.10;;;;;20.70;93934.00;;;;7366725;19;20159;-76
2023/06/09 07:33:44;;;;;;;4.43;4.03;;;;;20.70;93935.00;;;;7374035;19;20452;-76
2023/06/09 07:36:19;;;;;;;5.00;3.83;;;;;21.10;93931.00;;;;7373042;19;20586;-75
2023/06/09 07:38:55;;;;;;;4.25;3.60;;;;;21.20;93938.00;;;;7371991;19;20165;-77
2023/06/09 07:41:32;;;;;;;4.35;3.90;;;;;21.10;93938.00;;;;7370639;19;20144;-75
2023/06/09 07:44:11;;;;;;;6.82;4.07;;;;;21.60;93943.00;;;;7373251;19;20135;-76
2023/06/09 07:46:46;;;;;;;4.10;3.70;;;;;21.50;93937.00;;;;7372706;19;20124;-76
2023/06/09 07:49:26;;;;;;;5.10;4.18;;;;;21.40;93935.00;;;;7372955;19;20152;-76
2023/06/09 07:52:04;;;;;;;5.43;4.35;;;;;21.90;93943.00;;;;7373067;19;20128;-77
2023/06/09 07:54:53;;;;;;;5.97;4.60;;;;;22.20;93935.00;;;;7372667;19;20128;-76
2023/06/09 07:57:43;;;;;;;4.82;3.85;;;;;22.10;93928.00;;;;7375361;19;20276;-78
2023/06/09 08:00:13;;;;;;;4.03;3.63;;;;;22.10;93925.00;;;;7371492;19;20137;-77
2023/06/09 08:02:50;;;;;;;4.07;3.72;;;;;22.20;93933.00;;;;7370880;19;20215;-77
2023/06/09 08:05:35;;;;;;;5.72;3.92;;;;;22.10;93931.00;;;;7373562;19;20148;-77
2023/06/09 08:08:10;;;;;;;5.50;4.15;;;;;22.10;93927.00;;;;7374796;19;20149;-77
2023/06/09 08:10:45;;;;;;;6.03;4.03;;;;;22.40;93931.00;;;;7370940;19;20308;-76
2023/06/09 08:13:28;;;;;;;4.40;3.47;;;;;22.60;93926.00;;;;7371637;19;20135;-77
2023/06/09 08:16:06;;;;;;;4.57;3.92;;;;;23.00;93922.00;;;;7372090;19;20141;-78
2023/06/09 08:18:41;;;;;;;5.47;4.05;;;;;23.50;93925.00;;;;7371089;19;20191;-78
2023/06/09 08:21:11;;;;;;;4.82;3.75;;;;;23.80;93921.00;;;;7374049;19;20140;-77
2023/06/09 08:23:45;;;;;;;5.18;4.05;;;;;23.60;93912.00;;;;7378507;19;20136;-76
2023/06/09 08:26:15;;;;;;;4.78;4.00;;;;;24.00;93911.00;;;;7378871;19;20147;-76
2023/06/09 08:28:50;;;;;;;4.30;3.90;;;;;24.20;93911.00;;;;7378375;19;20180;-75
2023/06/09 08:31:24;;;;;;;7.65;4.07;;;;;24.60;93910.00;;;;7378277;19;20148;-75
2023/06/09 08:34:00;;;;;;;4.85;3.40;;;;;24.80;93902.00;;;;7378307;19;20128;-77
2023/06/09 08:36:28;;;;;;;3.80;3.50;;;;;24.90;93906.00;;;;7378622;19;20145;-77
2023/06/09 08:39:02;;;;;;;5.45;3.63;;;;;25.80;93905.00;;;;7378500;19;20167;-76
2023/06/09 08:41:38;;;;;;;5.82;3.60;;;;;25.00;93909.00;;;;7378897;19;20481;-77
2023/06/09 08:44:15;;;;;;;4.07;3.67;;;;;25.50;93899.00;;;;7377060;19;20502;-76
2023/06/09 08:46:50;;;;;;;5.78;4.03;;;;;25.60;93900.00;;;;7378432;19;20185;-76
2023/06/09 08:49:26;;;;;;;4.28;3.88;;;;;25.70;93904.00;;;;7377050;19;20152;-78
2023/06/09 08:52:04;;;;;;;5.30;3.90;;;;;25.90;93900.00;;;;7377270;19;20465;-77
2023/06/09 08:54:42;;;;;;;6.57;3.92;;;;;25.60;93898.00;;;;7376624;19;20144;-77
2023/06/09 08:57:17;;;;;;;4.80;4.28;;;;;25.00;93901.00;;;;7374790;19;23027;-76
2023/06/09 08:59:47;;;;;;;5.05;4.32;;;;;24.90;93909.00;;;;7376312;19;20163;-77
2023/06/09 09:02:22;;;;;;;4.10;3.65;;;;;25.20;93908.00;;;;7376982;19;20148;-78
2023/06/09 09:05:04;;;;;;;5.45;4.25;;;;;25.50;93915.00;;;;7377093;19;20169;-77
2023/06/09 09:07:34;;;;;;;6.88;4.35;;;;;25.40;93912.00;;;;7375496;19;20155;-78
2023/06/09 09:10:11;;;;;;;5.35;3.75;;;;;25.50;93916.00;;;;7376536;19;20212;-79
2023/06/09 09:12:50;;;;;;;8.27;4.30;;;;;25.10;93913.00;;;;7376879;19;20280;-79
2023/06/09 09:15:28;;;;;;;4.32;3.92;;;;;25.30;93916.00;;;;7375607;19;20149;-77
2023/06/09 09:18:07;;;;;;;5.72;3.92;;;;;25.40;93904.00;;;;7375006;19;20156;-78
2023/06/09 09:20:42;;;;;;;3.85;3.40;;;;;25.30;93910.00;;;;7375628;19;20148;-76
2023/06/09 09:23:17;;;;;;;4.97;4.18;;;;;25.00;93910.00;;;;7376979;19;20200;-77
2023/06/09 09:25:53;;;;;;;6.63;3.80;;;;;24.90;93915.00;;;;7374773;19;20140;-79
2023/06/09 09:28:39;;;;;;;5.18;3.50;;;;;25.40;93904.00;;;;7375721;19;20498;-78
2023/06/09 09:31:15;;;;;;;5.13;3.88;;;;;25.00;93913.00;;;;7376416;19;20156;-78
2023/06/09 09:33:51;;;;;;;5.22;3.85;;;;;25.10;93873.00;;;;7373130;19;20196;-79
2023/06/09 09:36:26;;;;;;;4.10;3.70;;;;;25.20;93896.00;;;;7372635;19;20653;-78
2023/06/09 09:39:05;;;;;;;6.28;3.20;;;;;26.00;93891.00;;;;7373925;19;20125;-76
2023/06/09 09:41:39;;;;;;;3.55;3.25;;;;;26.20;93889.00;;;;7375024;19;20517;-77
2023/06/09 09:44:09;;;;;;;3.15;2.88;;;;;26.00;93888.00;;;;7370233;19;20149;-77
2023/06/09 09:46:44;;;;;;;5.30;3.15;;;;;26.10;93890.00;;;;7373658;19;20149;-77
2023/06/09 09:49:23;;;;;;;4.38;3.60;;;;;26.60;93886.00;;;;7376004;19;20140;-77
2023/06/09 09:51:58;;;;;;;3.85;3.53;;;;;26.70;93876.00;;;;7376283;19;20186;-77
2023/06/09 09:54:27;;;;;;;5.88;3.40;;;;;26.90;93919.00;;;;7371323;19;20520;-76
2023/06/09 09:57:06;;;;;;;9.52;3.30;;;;;27.00;93881.00;;;;7369664;19;20152;-79
2023/06/09 09:59:33;;;;;;;3.67;3.33;;;;;27.30;93878.00;;;;7374872;19;20688;-78
2023/06/09 10:02:16;;;;;;;6.10;4.05;;;;;27.40;93879.00;;;;7376939;19;20148;-76
2023/06/09 10:04:52;;;;;;;4.53;3.47;;;;;28.20;93875.00;;;;7373164;19;20608;-77
2023/06/09 10:07:29;;;;;;;4.18;3.55;;;;;28.80;93877.00;;;;7372554;19;20164;-76
2023/06/09 10:09:57;;;;;;;5.60;3.22;;;;;28.10;93882.00;;;;7373896;19;20117;-76
2023/06/09 10:12:37;;;;;;;5.68;3.13;;;;;28.30;93880.00;;;;7374353;19;20616;-77
2023/06/09 10:15:08;;;;;;;4.07;3.30;;;;;28.80;93884.00;;;;7373969;19;20144;-76
2023/06/09 10:17:44;;;;;;;6.07;3.42;;;;;29.20;93879.00;;;;7371861;19;20512;-77
2023/06/09 10:20:14;;;;;;;4.60;3.75;;;;;29.00;93884.00;;;;7374187;19;20129;-77
2023/06/09 10:22:51;;;;;;;4.68;3.63;;;;;29.10;93888.00;;;;7374080;19;20486;-78
2023/06/09 10:25:28;;;;;;;6.28;4.35;;;;;29.30;93883.00;;;;7372997;19;20179;-77
2023/06/09 10:28:04;;;;;;;7.28;3.60;;;;;29.30;93876.00;;;;7373306;19;20128;-76
2023/06/09 10:30:41;;;;;;;4.15;3.75;;;;;29.00;93915.00;;;;7372670;19;20278;-78
2023/06/09 10:33:30;;;;;;;6.40;3.55;;;;;27.30;93922.00;;;;7372843;19;20628;-78
2023/06/09 10:36:09;;;;;;;9.23;3.67;;;;;26.30;93878.00;;;;7372175;19;20150;-77
2023/06/09 10:38:42;;;;;;;4.80;3.83;;;;;27.40;93871.00;;;;7371229;19;20565;-76
2023/06/09 10:41:17;;;;;;;6.88;4.38;;;;;28.70;93871.00;;;;7373643;19;20177;-77
2023/06/09 10:44:26;;;;;;;3.80;3.50;;;;;29.50;93863.00;;;;7367959;19;20128;-78
2023/06/09 10:46:55;;;;;;;6.63;3.90;;;;;30.10;93903.00;;;;7369243;19;20165;-79
2023/06/09 10:49:36;;;;;;;7.88;3.85;;;;;29.40;93875.00;;;;7369368;19;20518;-79
2023/06/09 10:52:06;;;;;;;5.70;4.43;;;;;30.30;93869.00;;;;7372455;19;20125;-78
2023/06/09 10:54:41;;;;;;;4.90;3.78;;;;;30.20;93873.00;;;;7370262;19;20128;-78
2023/06/09 10:57:35;;;;;;;6.50;3.88;;;;;30.20;93907.00;;;;7373195;19;20141;-78
2023/06/09 11:00:11;;;;;;;4.82;4.38;;;;;27.90;93896.00;;;;7369837;19;20472;-78
2023/06/09 11:02:51;;;;;;;6.32;4.38;;;;;28.80;93868.00;;;;7370250;19;20160;-78
2023/06/09 11:05:47;;;;;;;7.20;4.10;;;;;29.60;93867.00;;;;7370127;19;20159;-78
2023/06/09 11:08:15;;;;;;;4.10;3.70;;;;;30.00;93858.00;;;;7370467;19;21091;-79
2023/06/09 11:10:49;;;;;;;5.35;3.92;;;;;28.20;93913.00;;;;7370623;19;20150;-80
2023/06/09 11:13:40;;;;;;;4.57;4.18;;;;;27.00;93890.00;;;;7367200;19;20152;-78
2023/06/09 11:16:14;;;;;;;4.32;3.92;;;;;26.10;93876.00;;;;7370813;19;20631;-78
2023/06/09 11:19:21;;;;;;;6.60;4.10;;;;;27.40;93863.00;;;;7368893;19;20124;-78
2023/06/09 11:22:03;;;;;;;4.70;4.15;;;;;28.90;93856.00;;;;7369904;19;20211;-77
2023/06/09 11:24:51;;;;;;;4.68;4.22;;;;;28.40;93907.00;;;;7370679;19;20149;-78
2023/06/09 11:27:25;;;;;;;4.43;3.90;;;;;27.10;93850.00;;;;7368879;19;20130;-78
2023/06/09 11:30:11;;;;;;;8.50;3.75;;;;;27.90;93850.00;;;;7370160;19;20215;-77
2023/06/09 11:32:54;;;;;;;4.05;3.67;;;;;29.20;93859.00;;;;7369602;19;20801;-78
2023/06/09 11:35:28;;;;;;;4.32;3.78;;;;;29.60;93854.00;;;;7369203;19;20682;-80
2023/06/09 11:37:59;;;;;;;5.28;4.18;;;;;30.50;93853.00;;;;7369695;19;21548;-80
2023/06/09 11:40:38;;;;;;;4.95;4.00;;;;;30.00;93844.00;;;;7370766;19;20133;-79
2023/06/09 11:43:09;;;;;;;3.90;3.35;;;;;30.60;93844.00;;;;7371347;19;20128;-80
2023/06/09 11:45:44;;;;;;;4.25;3.83;;;30.30;99.90;31.10;93844.00;;;;7369050;19;20148;-77
2023/06/09 11:48:12;;;;;;;5.78;3.67;;;30.50;99.90;31.00;93830.00;;;;7369089;19;20156;-79
2023/06/09 11:50:46;;;;;;;4.25;3.63;;;30.60;99.90;30.90;93845.00;;;;7371176;19;20136;-78
2023/06/09 11:53:25;;;;;;;4.13;3.72;;;30.80;99.90;30.30;93870.00;;;;7370492;19;20152;-78
2023/06/09 11:56:03;;;;;;;4.07;3.70;;;30.20;99.90;29.90;93891.00;;;;7366518;19;20218;-77
2023/06/09 11:58:32;;;;;;;4.78;4.28;;;29.60;99.90;28.60;93888.00;;;;7368465;19;20636;-78
2023/06/09 12:01:13;;;;;;;4.20;3.80;;;29.10;99.90;29.20;93824.00;;;;7368639;19;21754;-78
2023/06/09 12:03:59;;;;;;;4.57;3.80;;;28.60;99.90;29.70;93878.00;;;;7368860;19;20184;-78
2023/06/09 12:06:36;;;;;;;3.90;3.60;;;28.60;99.90;28.40;93879.00;;;;7369557;19;20544;-78
2023/06/09 12:09:20;;;;;;;8.73;3.95;;;28.40;99.90;28.20;93876.00;;;;7367088;19;20148;-78
2023/06/09 12:11:54;;;;;;;4.30;3.90;;;27.80;99.90;26.70;93878.00;;;;7370150;19;20128;-78
2023/06/09 12:14:33;;;;;;;4.45;4.03;;;27.50;99.90;26.10;93871.00;;;;7370262;19;20140;-77
2023/06/09 12:17:07;;;;;;;3.92;3.13;;;26.60;99.90;25.30;93868.00;;;;7371164;19;20151;-77
2023/06/09 12:19:41;;;;;;;4.82;3.75;;;26.00;99.90;26.20;93823.00;;;;7367681;19;20128;-77
2023/06/09 12:22:16;;;;;;;4.70;4.07;;;25.80;99.90;28.10;93825.00;;;;7366118;19;21237;-76
2023/06/09 12:24:44;;;;;;;6.50;3.83;;;26.20;99.90;29.30;93807.00;;;;7370838;19;20489;-78
2023/06/09 12:27:14;;;;;;;12.77;3.88;;;27.10;99.90;30.70;93783.00;;;;7368461;19;20148;-78
2023/06/09 12:29:48;;;;;;;4.55;3.90;;;28.20;99.90;31.00;93806.00;;;;7366799;19;20156;-77
2023/06/09 12:32:23;;;;;;;6.78;3.60;;;29.00;99.90;31.70;93806.00;;;;7365976;19;20629;-78
2023/06/09 12:35:03;;;;;;;3.65;3.33;;;29.70;99.90;29.60;93870.00;;;;7367366;19;20128;-78
2023/06/09 12:37:37;;;;;;;4.35;3.90;;;29.10;99.90;28.80;93816.00;;;;7370261;19;20155;-78
2023/06/09 12:40:11;;;;;;;3.90;3.50;;;28.40;99.90;29.50;93859.00;;;;7364032;19;20610;-76
2023/06/09 12:42:46;;;;;;;3.80;3.40;;;28.40;99.90;27.90;93875.00;;;;7366471;19;20502;-76
2023/06/09 12:45:23;;;;;;;4.68;3.30;;;28.10;99.90;27.00;93831.00;;;;7367181;19;20156;-76
2023/06/09 12:47:50;;;;;;;5.18;3.15;;;27.40;99.90;28.20;93789.00;;;;7369442;19;20150;-76